This is the latest recevied weather packets stored in our database for station/object WB3IGR. If no packets are shown the sender has not sent any weather packets the latest 1 day(s).
| Time | Temp. | Humidity | Pressure | Rain* | Wind** | Luminosity | Snow |
|---|---|---|---|---|---|---|---|
| 1777996170 | 25° C | 49% | 1011.6 hPa | 0 mm | 2.68 m/s, 298° | 700 W/m² | - |
| 1777995866 | 25° C | 47% | 1011.7 hPa | 0 mm | 4.02 m/s, 345° | 706 W/m² | - |
| 1777995562 | 25° C | 47% | 1011.7 hPa | 0 mm | 3.58 m/s, 15° | 708 W/m² | - |
| 1777995260 | 25° C | 51% | 1011.8 hPa | 0 mm | 3.13 m/s, 261° | 686 W/m² | - |
| 1777994956 | 25° C | 50% | 1011.9 hPa | 0 mm | 2.68 m/s, 260° | 679 W/m² | - |
| 1777994653 | 25° C | 51% | 1011.8 hPa | 0 mm | 2.68 m/s, 263° | 667 W/m² | - |
| 1777994348 | 25° C | 52% | 1011.9 hPa | 0 mm | 1.34 m/s, 274° | 645 W/m² | - |
| 1777994044 | 24.44° C | 50% | 1011.9 hPa | 0 mm | 3.13 m/s, 256° | 672 W/m² | - |
| 1777993741 | 24.44° C | 50% | 1011.9 hPa | 0 mm | 2.24 m/s, 331° | 672 W/m² | - |
| 1777993439 | 24.44° C | 50% | 1011.9 hPa | 0 mm | 2.68 m/s, 317° | 654 W/m² | - |
| 1777993133 | 24.44° C | 50% | 1012 hPa | 0 mm | 2.24 m/s, 302° | 666 W/m² | - |
| 1777992831 | 24.44° C | 52% | 1012 hPa | 0 mm | 1.79 m/s, 284° | 667 W/m² | - |
| 1777992528 | 23.89° C | 52% | 1012.1 hPa | 0 mm | 2.68 m/s, 294° | 677 W/m² | - |
| 1777992227 | 23.89° C | 52% | 1012.1 hPa | 0 mm | 3.13 m/s, 281° | 657 W/m² | - |
| 1777991923 | 23.89° C | 52% | 1012 hPa | 0 mm | 2.24 m/s, 335° | 672 W/m² | - |
| 1777991621 | 23.33° C | 52% | 1012 hPa | 0 mm | 4.02 m/s, 244° | 682 W/m² | - |
| 1777991317 | 23.33° C | 52% | 1012.2 hPa | 0 mm | 3.13 m/s, 303° | 676 W/m² | - |
| 1777991010 | 23.33° C | 55% | 1012 hPa | 0 mm | 1.79 m/s, 316° | 658 W/m² | - |
| 1777990707 | 22.78° C | 55% | 1012.3 hPa | 0 mm | 1.79 m/s, 264° | 639 W/m² | - |
| 1777990404 | 23.33° C | 56% | 1012.1 hPa | 0 mm | 1.79 m/s, 241° | 632 W/m² | - |
| 1777990101 | 22.78° C | 56% | 1012.1 hPa | 0 mm | 1.34 m/s, 276° | 631 W/m² | - |
| 1777989797 | 22.78° C | 56% | 1012.3 hPa | 0 mm | 1.34 m/s, 234° | 625 W/m² | - |
| 1777989494 | 22.22° C | 58% | 1012.4 hPa | 0 mm | 3.13 m/s, 268° | 611 W/m² | - |
| 1777989190 | 21.67° C | 59% | 1012.3 hPa | 0 mm | 1.79 m/s, 342° | 588 W/m² | - |
| 1777988887 | 21.11° C | 60% | 1012.4 hPa | 0 mm | 2.68 m/s, 236° | 567 W/m² | - |
* Rain latest hour (hover to see other rain measurements)
** Current wind speed in m/s (hover to see current wind gust speed)